sensor_id;sensor_type;location;lat;lon;timestamp;P1;durP1;ratioP1;P2;durP2;ratioP2
76978;SDS011;65911;47.502;19.148;2023-04-01T00:00:13;2.22;;;1.27;;
76978;SDS011;65911;47.502;19.148;2023-04-01T00:03:15;1.90;;;0.90;;
76978;SDS011;65911;47.502;19.148;2023-04-01T00:06:18;2.38;;;1.00;;
76978;SDS011;65911;47.502;19.148;2023-04-01T00:09:20;2.20;;;1.15;;
76978;SDS011;65911;47.502;19.148;2023-04-01T00:12:22;1.90;;;0.97;;
76978;SDS011;65911;47.502;19.148;2023-04-01T00:15:26;2.22;;;1.10;;
76978;SDS011;65911;47.502;19.148;2023-04-01T00:18:29;1.75;;;1.10;;
76978;SDS011;65911;47.502;19.148;2023-04-01T00:21:31;2.15;;;1.00;;
76978;SDS011;65911;47.502;19.148;2023-04-01T00:24:34;1.50;;;1.40;;
76978;SDS011;65911;47.502;19.148;2023-04-01T00:27:36;1.15;;;1.05;;
76978;SDS011;65911;47.502;19.148;2023-04-01T00:30:38;1.60;;;1.25;;
76978;SDS011;65911;47.502;19.148;2023-04-01T00:33:41;3.03;;;1.10;;
76978;SDS011;65911;47.502;19.148;2023-04-01T00:36:43;2.30;;;1.20;;
76978;SDS011;65911;47.502;19.148;2023-04-01T00:39:45;2.35;;;1.20;;
76978;SDS011;65911;47.502;19.148;2023-04-01T00:42:48;1.80;;;1.30;;
76978;SDS011;65911;47.502;19.148;2023-04-01T00:45:50;2.40;;;1.13;;
76978;SDS011;65911;47.502;19.148;2023-04-01T00:48:53;2.15;;;1.58;;
76978;SDS011;65911;47.502;19.148;2023-04-01T00:51:57;1.40;;;1.30;;
76978;SDS011;65911;47.502;19.148;2023-04-01T00:55:02;2.35;;;1.60;;
76978;SDS011;65911;47.502;19.148;2023-04-01T00:58:07;2.17;;;1.35;;
76978;SDS011;65911;47.502;19.148;2023-04-01T01:01:12;2.22;;;1.08;;
76978;SDS011;65911;47.502;19.148;2023-04-01T01:04:25;1.80;;;1.40;;
76978;SDS011;65911;47.502;19.148;2023-04-01T01:10:43;1.92;;;1.08;;
76978;SDS011;65911;47.502;19.148;2023-04-01T01:14:25;2.90;;;1.53;;
76978;SDS011;65911;47.502;19.148;2023-04-01T01:21:48;2.78;;;1.38;;
76978;SDS011;65911;47.502;19.148;2023-04-01T01:27:42;2.28;;;1.25;;
76978;SDS011;65911;47.502;19.148;2023-04-01T01:30:51;3.03;;;1.35;;
76978;SDS011;65911;47.502;19.148;2023-04-01T01:37:34;3.27;;;1.30;;
76978;SDS011;65911;47.502;19.148;2023-04-01T01:40:37;2.42;;;1.40;;
76978;SDS011;65911;47.502;19.148;2023-04-01T01:43:43;2.03;;;1.10;;
76978;SDS011;65911;47.502;19.148;2023-04-01T01:46:48;2.37;;;1.57;;
76978;SDS011;65911;47.502;19.148;2023-04-01T01:49:51;3.08;;;1.60;;
76978;SDS011;65911;47.502;19.148;2023-04-01T01:53:02;2.83;;;1.60;;
76978;SDS011;65911;47.502;19.148;2023-04-01T01:56:09;2.83;;;1.73;;
76978;SDS011;65911;47.502;19.148;2023-04-01T01:59:15;2.40;;;1.50;;
76978;SDS011;65911;47.502;19.148;2023-04-01T02:02:18;2.40;;;1.48;;
76978;SDS011;65911;47.502;19.148;2023-04-01T02:05:23;2.38;;;1.70;;
76978;SDS011;65911;47.502;19.148;2023-04-01T02:08:34;4.80;;;1.53;;
76978;SDS011;65911;47.502;19.148;2023-04-01T02:11:42;3.17;;;1.55;;
76978;SDS011;65911;47.502;19.148;2023-04-01T02:17:54;2.13;;;1.60;;
76978;SDS011;65911;47.502;19.148;2023-04-01T02:20:59;3.92;;;1.83;;
76978;SDS011;65911;47.502;19.148;2023-04-01T02:24:04;3.28;;;1.80;;
76978;SDS011;65911;47.502;19.148;2023-04-01T02:27:09;2.17;;;1.80;;
76978;SDS011;65911;47.502;19.148;2023-04-01T02:30:12;3.17;;;1.85;;
76978;SDS011;65911;47.502;19.148;2023-04-01T02:33:15;2.03;;;1.73;;
76978;SDS011;65911;47.502;19.148;2023-04-01T02:36:18;3.15;;;2.00;;
76978;SDS011;65911;47.502;19.148;2023-04-01T02:39:20;3.17;;;1.90;;
76978;SDS011;65911;47.502;19.148;2023-04-01T02:42:23;2.78;;;1.52;;
76978;SDS011;65911;47.502;19.148;2023-04-01T02:45:25;3.70;;;1.90;;
76978;SDS011;65911;47.502;19.148;2023-04-01T02:48:27;2.63;;;1.87;;
76978;SDS011;65911;47.502;19.148;2023-04-01T02:51:30;2.83;;;1.90;;
76978;SDS011;65911;47.502;19.148;2023-04-01T02:54:33;2.67;;;2.05;;
76978;SDS011;65911;47.502;19.148;2023-04-01T02:57:36;2.47;;;1.80;;
76978;SDS011;65911;47.502;19.148;2023-04-01T03:00:38;2.50;;;1.75;;
76978;SDS011;65911;47.502;19.148;2023-04-01T03:03:40;3.08;;;1.77;;
76978;SDS011;65911;47.502;19.148;2023-04-01T03:06:42;1.55;;;1.30;;
76978;SDS011;65911;47.502;19.148;2023-04-01T03:09:44;2.57;;;1.30;;
76978;SDS011;65911;47.502;19.148;2023-04-01T03:12:46;1.58;;;1.27;;
76978;SDS011;65911;47.502;19.148;2023-04-01T03:15:49;1.60;;;1.10;;
76978;SDS011;65911;47.502;19.148;2023-04-01T03:18:51;1.50;;;1.03;;
76978;SDS011;65911;47.502;19.148;2023-04-01T03:21:55;1.27;;;0.80;;
76978;SDS011;65911;47.502;19.148;2023-04-01T03:24:58;1.42;;;0.90;;
76978;SDS011;65911;47.502;19.148;2023-04-01T03:28:00;1.77;;;0.95;;
76978;SDS011;65911;47.502;19.148;2023-04-01T03:31:04;1.50;;;1.00;;
76978;SDS011;65911;47.502;19.148;2023-04-01T03:34:14;1.08;;;0.98;;
76978;SDS011;65911;47.502;19.148;2023-04-01T03:37:30;1.50;;;0.70;;
76978;SDS011;65911;47.502;19.148;2023-04-01T03:40:34;0.70;;;0.60;;
76978;SDS011;65911;47.502;19.148;2023-04-01T03:43:40;1.00;;;0.85;;
76978;SDS011;65911;47.502;19.148;2023-04-01T03:46:45;2.00;;;0.77;;
76978;SDS011;65911;47.502;19.148;2023-04-01T03:49:49;1.30;;;0.90;;
76978;SDS011;65911;47.502;19.148;2023-04-01T03:52:51;1.15;;;0.70;;
76978;SDS011;65911;47.502;19.148;2023-04-01T03:55:54;1.08;;;0.80;;
76978;SDS011;65911;47.502;19.148;2023-04-01T03:58:56;1.25;;;0.90;;
76978;SDS011;65911;47.502;19.148;2023-04-01T04:02:02;1.90;;;1.08;;
76978;SDS011;65911;47.502;19.148;2023-04-01T04:05:04;1.73;;;0.93;;
76978;SDS011;65911;47.502;19.148;2023-04-01T04:08:09;1.10;;;0.93;;
76978;SDS011;65911;47.502;19.148;2023-04-01T04:11:11;1.00;;;0.80;;
76978;SDS011;65911;47.502;19.148;2023-04-01T04:14:16;0.90;;;0.73;;
76978;SDS011;65911;47.502;19.148;2023-04-01T04:17:19;1.02;;;0.63;;
76978;SDS011;65911;47.502;19.148;2023-04-01T04:20:22;3.07;;;0.70;;
76978;SDS011;65911;47.502;19.148;2023-04-01T04:23:24;2.28;;;0.80;;
76978;SDS011;65911;47.502;19.148;2023-04-01T04:26:26;0.80;;;0.70;;
76978;SDS011;65911;47.502;19.148;2023-04-01T04:29:34;1.73;;;0.90;;
76978;SDS011;65911;47.502;19.148;2023-04-01T04:32:36;1.15;;;0.70;;
76978;SDS011;65911;47.502;19.148;2023-04-01T04:35:44;1.52;;;0.80;;
76978;SDS011;65911;47.502;19.148;2023-04-01T04:38:47;2.55;;;0.88;;
76978;SDS011;65911;47.502;19.148;2023-04-01T04:41:50;2.77;;;1.10;;
76978;SDS011;65911;47.502;19.148;2023-04-01T04:44:53;1.67;;;0.60;;
76978;SDS011;65911;47.502;19.148;2023-04-01T04:47:58;2.00;;;0.65;;
76978;SDS011;65911;47.502;19.148;2023-04-01T04:51:00;1.43;;;0.70;;
76978;SDS011;65911;47.502;19.148;2023-04-01T04:54:03;1.58;;;0.90;;
76978;SDS011;65911;47.502;19.148;2023-04-01T04:57:35;2.25;;;0.85;;
76978;SDS011;65911;47.502;19.148;2023-04-01T05:00:37;1.85;;;1.10;;
76978;SDS011;65911;47.502;19.148;2023-04-01T05:03:44;2.38;;;1.27;;
76978;SDS011;65911;47.502;19.148;2023-04-01T05:06:46;2.15;;;1.08;;
76978;SDS011;65911;47.502;19.148;2023-04-01T05:09:50;1.63;;;0.95;;
76978;SDS011;65911;47.502;19.148;2023-04-01T05:12:53;1.70;;;1.00;;
76978;SDS011;65911;47.502;19.148;2023-04-01T05:15:57;2.95;;;1.52;;
76978;SDS011;65911;47.502;19.148;2023-04-01T05:18:59;2.33;;;1.40;;
76978;SDS011;65911;47.502;19.148;2023-04-01T05:22:02;2.10;;;1.50;;
76978;SDS011;65911;47.502;19.148;2023-04-01T05:25:04;2.25;;;1.70;;
76978;SDS011;65911;47.502;19.148;2023-04-01T05:28:07;3.80;;;2.00;;
76978;SDS011;65911;47.502;19.148;2023-04-01T05:31:09;3.20;;;1.90;;
76978;SDS011;65911;47.502;19.148;2023-04-01T05:34:14;2.83;;;1.70;;
76978;SDS011;65911;47.502;19.148;2023-04-01T05:37:17;2.67;;;1.80;;
76978;SDS011;65911;47.502;19.148;2023-04-01T05:40:19;3.13;;;1.85;;
76978;SDS011;65911;47.502;19.148;2023-04-01T05:43:22;3.60;;;1.90;;
76978;SDS011;65911;47.502;19.148;2023-04-01T05:46:25;2.63;;;1.85;;
76978;SDS011;65911;47.502;19.148;2023-04-01T05:49:33;3.17;;;2.10;;
76978;SDS011;65911;47.502;19.148;2023-04-01T05:52:37;3.20;;;2.10;;
76978;SDS011;65911;47.502;19.148;2023-04-01T05:55:39;3.78;;;2.25;;
76978;SDS011;65911;47.502;19.148;2023-04-01T05:58:42;3.75;;;2.15;;
76978;SDS011;65911;47.502;19.148;2023-04-01T06:01:44;4.63;;;1.85;;
76978;SDS011;65911;47.502;19.148;2023-04-01T06:04:46;2.40;;;1.67;;
76978;SDS011;65911;47.502;19.148;2023-04-01T06:07:50;4.13;;;1.85;;
76978;SDS011;65911;47.502;19.148;2023-04-01T06:21:54;2.95;;;0.93;;
76978;SDS011;65911;47.502;19.148;2023-04-01T06:25:00;1.97;;;0.83;;
76978;SDS011;65911;47.502;19.148;2023-04-01T06:31:38;2.25;;;0.88;;
76978;SDS011;65911;47.502;19.148;2023-04-01T06:41:27;1.10;;;0.63;;
76978;SDS011;65911;47.502;19.148;2023-04-01T06:44:47;1.73;;;0.90;;
76978;SDS011;65911;47.502;19.148;2023-04-01T06:52:08;0.70;;;0.52;;
76978;SDS011;65911;47.502;19.148;2023-04-01T06:55:47;2.55;;;0.77;;
76978;SDS011;65911;47.502;19.148;2023-04-01T06:59:12;3.30;;;0.80;;
76978;SDS011;65911;47.502;19.148;2023-04-01T07:02:25;1.00;;;0.90;;
76978;SDS011;65911;47.502;19.148;2023-04-01T07:05:33;3.67;;;0.63;;
76978;SDS011;65911;47.502;19.148;2023-04-01T07:08:38;2.83;;;0.63;;
76978;SDS011;65911;47.502;19.148;2023-04-01T07:11:42;1.08;;;0.60;;
76978;SDS011;65911;47.502;19.148;2023-04-01T07:15:18;1.88;;;0.93;;
76978;SDS011;65911;47.502;19.148;2023-04-01T07:19:12;1.85;;;0.82;;
76978;SDS011;65911;47.502;19.148;2023-04-01T07:21:55;0.80;;;0.50;;
76978;SDS011;65911;47.502;19.148;2023-04-01T07:25:13;0.95;;;0.65;;
76978;SDS011;65911;47.502;19.148;2023-04-01T07:28:19;1.52;;;0.82;;
76978;SDS011;65911;47.502;19.148;2023-04-01T07:38:35;0.82;;;0.63;;
76978;SDS011;65911;47.502;19.148;2023-04-01T07:41:52;1.50;;;0.70;;
76978;SDS011;65911;47.502;19.148;2023-04-01T07:45:08;1.80;;;0.60;;
76978;SDS011;65911;47.502;19.148;2023-04-01T07:51:32;2.97;;;0.90;;
76978;SDS011;65911;47.502;19.148;2023-04-01T08:02:42;1.08;;;0.77;;
76978;SDS011;65911;47.502;19.148;2023-04-01T08:23:40;3.08;;;0.68;;
76978;SDS011;65911;47.502;19.148;2023-04-01T08:26:51;2.42;;;0.77;;
76978;SDS011;65911;47.502;19.148;2023-04-01T08:33:21;1.10;;;0.50;;
76978;SDS011;65911;47.502;19.148;2023-04-01T08:36:30;1.42;;;0.50;;
76978;SDS011;65911;47.502;19.148;2023-04-01T08:54:19;0.73;;;0.32;;
76978;SDS011;65911;47.502;19.148;2023-04-01T09:05:48;2.20;;;0.63;;
76978;SDS011;65911;47.502;19.148;2023-04-01T09:15:45;1.63;;;0.70;;
76978;SDS011;65911;47.502;19.148;2023-04-01T09:22:22;1.38;;;0.60;;
76978;SDS011;65911;47.502;19.148;2023-04-01T09:25:30;1.25;;;0.75;;
76978;SDS011;65911;47.502;19.148;2023-04-01T09:32:10;1.60;;;0.80;;
76978;SDS011;65911;47.502;19.148;2023-04-01T10:09:49;1.60;;;0.90;;
76978;SDS011;65911;47.502;19.148;2023-04-01T10:16:33;1.67;;;0.60;;
76978;SDS011;65911;47.502;19.148;2023-04-01T10:26:23;1.67;;;0.75;;
76978;SDS011;65911;47.502;19.148;2023-04-01T10:36:50;2.25;;;0.85;;
76978;SDS011;65911;47.502;19.148;2023-04-01T10:44:39;5.30;;;0.90;;
76978;SDS011;65911;47.502;19.148;2023-04-01T10:58:06;2.33;;;1.00;;
76978;SDS011;65911;47.502;19.148;2023-04-01T11:33:35;1.90;;;0.63;;
76978;SDS011;65911;47.502;19.148;2023-04-01T11:40:01;1.98;;;0.80;;
76978;SDS011;65911;47.502;19.148;2023-04-01T11:43:40;1.55;;;0.82;;
76978;SDS011;65911;47.502;19.148;2023-04-01T11:54:07;1.83;;;0.93;;
76978;SDS011;65911;47.502;19.148;2023-04-01T12:00:56;2.55;;;0.73;;
76978;SDS011;65911;47.502;19.148;2023-04-01T12:10:26;2.35;;;0.90;;
76978;SDS011;65911;47.502;19.148;2023-04-01T12:19:48;2.33;;;1.00;;
76978;SDS011;65911;47.502;19.148;2023-04-01T13:01:27;1.95;;;0.55;;
76978;SDS011;65911;47.502;19.148;2023-04-01T13:04:38;1.63;;;0.55;;
76978;SDS011;65911;47.502;19.148;2023-04-01T13:23:24;1.10;;;0.40;;
76978;SDS011;65911;47.502;19.148;2023-04-01T13:33:50;1.27;;;0.38;;
76978;SDS011;65911;47.502;19.148;2023-04-01T13:44:20;1.48;;;0.55;;
76978;SDS011;65911;47.502;19.148;2023-04-01T13:47:40;1.90;;;0.30;;
76978;SDS011;65911;47.502;19.148;2023-04-01T14:04:49;1.17;;;0.45;;
76978;SDS011;65911;47.502;19.148;2023-04-01T14:11:19;2.53;;;0.65;;
76978;SDS011;65911;47.502;19.148;2023-04-01T14:21:29;1.20;;;0.20;;
76978;SDS011;65911;47.502;19.148;2023-04-01T14:27:53;0.82;;;0.30;;
76978;SDS011;65911;47.502;19.148;2023-04-01T14:41:24;0.82;;;0.60;;
76978;SDS011;65911;47.502;19.148;2023-04-01T14:51:44;0.82;;;0.40;;
76978;SDS011;65911;47.502;19.148;2023-04-01T14:54:36;1.17;;;0.30;;
76978;SDS011;65911;47.502;19.148;2023-04-01T14:57:39;1.75;;;0.50;;
76978;SDS011;65911;47.502;19.148;2023-04-01T15:36:18;1.33;;;0.50;;
76978;SDS011;65911;47.502;19.148;2023-04-01T15:43:25;1.02;;;0.20;;
76978;SDS011;65911;47.502;19.148;2023-04-01T15:46:43;1.98;;;0.30;;
76978;SDS011;65911;47.502;19.148;2023-04-01T15:49:49;3.25;;;0.82;;
76978;SDS011;65911;47.502;19.148;2023-04-01T16:10:20;1.87;;;0.60;;
76978;SDS011;65911;47.502;19.148;2023-04-01T16:13:41;1.92;;;0.20;;
76978;SDS011;65911;47.502;19.148;2023-04-01T16:17:12;1.13;;;0.40;;
76978;SDS011;65911;47.502;19.148;2023-04-01T16:27:00;0.30;;;0.30;;
76978;SDS011;65911;47.502;19.148;2023-04-01T16:37:00;0.50;;;0.35;;
76978;SDS011;65911;47.502;19.148;2023-04-01T16:40:22;1.52;;;0.22;;
76978;SDS011;65911;47.502;19.148;2023-04-01T16:43:51;0.53;;;0.40;;
76978;SDS011;65911;47.502;19.148;2023-04-01T16:47:08;0.80;;;0.28;;
76978;SDS011;65911;47.502;19.148;2023-04-01T16:50:19;1.70;;;0.57;;
76978;SDS011;65911;47.502;19.148;2023-04-01T16:56:49;1.20;;;0.70;;
76978;SDS011;65911;47.502;19.148;2023-04-01T16:59:55;1.02;;;0.50;;
76978;SDS011;65911;47.502;19.148;2023-04-01T17:12:31;2.25;;;0.50;;
76978;SDS011;65911;47.502;19.148;2023-04-01T17:15:57;1.43;;;0.50;;
76978;SDS011;65911;47.502;19.148;2023-04-01T17:26:06;2.35;;;0.85;;
76978;SDS011;65911;47.502;19.148;2023-04-01T17:32:22;1.58;;;0.60;;
76978;SDS011;65911;47.502;19.148;2023-04-01T17:35:35;3.15;;;0.77;;
76978;SDS011;65911;47.502;19.148;2023-04-01T17:38:56;1.40;;;0.70;;
76978;SDS011;65911;47.502;19.148;2023-04-01T17:46:02;2.10;;;0.75;;
76978;SDS011;65911;47.502;19.148;2023-04-01T17:49:49;1.47;;;0.80;;
76978;SDS011;65911;47.502;19.148;2023-04-01T17:53:46;1.98;;;0.55;;
76978;SDS011;65911;47.502;19.148;2023-04-01T18:03:30;1.45;;;0.80;;
76978;SDS011;65911;47.502;19.148;2023-04-01T18:17:23;2.72;;;0.82;;
76978;SDS011;65911;47.502;19.148;2023-04-01T18:23:43;1.47;;;0.87;;
76978;SDS011;65911;47.502;19.148;2023-04-01T18:27:03;1.80;;;0.85;;
76978;SDS011;65911;47.502;19.148;2023-04-01T18:30:20;2.08;;;1.10;;
76978;SDS011;65911;47.502;19.148;2023-04-01T18:33:25;1.50;;;0.90;;
76978;SDS011;65911;47.502;19.148;2023-04-01T18:36:47;1.70;;;0.80;;
76978;SDS011;65911;47.502;19.148;2023-04-01T18:39:55;2.17;;;0.82;;
76978;SDS011;65911;47.502;19.148;2023-04-01T18:44:22;2.38;;;0.90;;
76978;SDS011;65911;47.502;19.148;2023-04-01T18:50:43;2.25;;;1.10;;
76978;SDS011;65911;47.502;19.148;2023-04-01T18:53:53;1.45;;;0.90;;
76978;SDS011;65911;47.502;19.148;2023-04-01T18:57:10;2.50;;;1.10;;
76978;SDS011;65911;47.502;19.148;2023-04-01T19:06:50;2.60;;;0.98;;
76978;SDS011;65911;47.502;19.148;2023-04-01T19:10:00;3.25;;;1.27;;
76978;SDS011;65911;47.502;19.148;2023-04-01T19:13:09;3.35;;;1.33;;
76978;SDS011;65911;47.502;19.148;2023-04-01T19:16:32;2.58;;;1.40;;
76978;SDS011;65911;47.502;19.148;2023-04-01T19:26:22;3.25;;;1.17;;
76978;SDS011;65911;47.502;19.148;2023-04-01T19:36:32;3.03;;;1.40;;
76978;SDS011;65911;47.502;19.148;2023-04-01T19:39:42;1.90;;;0.98;;
76978;SDS011;65911;47.502;19.148;2023-04-01T19:43:20;4.68;;;1.48;;
76978;SDS011;65911;47.502;19.148;2023-04-01T19:46:40;3.00;;;1.23;;
76978;SDS011;65911;47.502;19.148;2023-04-01T19:50:14;2.58;;;1.23;;
76978;SDS011;65911;47.502;19.148;2023-04-01T19:56:54;1.85;;;1.50;;
76978;SDS011;65911;47.502;19.148;2023-04-01T20:06:37;3.42;;;1.20;;
76978;SDS011;65911;47.502;19.148;2023-04-01T20:16:19;2.10;;;1.30;;
76978;SDS011;65911;47.502;19.148;2023-04-01T20:25:54;2.03;;;1.10;;
76978;SDS011;65911;47.502;19.148;2023-04-01T20:39:20;1.80;;;1.30;;
76978;SDS011;65911;47.502;19.148;2023-04-01T20:42:55;3.13;;;0.90;;
76978;SDS011;65911;47.502;19.148;2023-04-01T20:46:18;2.28;;;1.42;;
76978;SDS011;65911;47.502;19.148;2023-04-01T20:49:41;2.03;;;1.33;;
76978;SDS011;65911;47.502;19.148;2023-04-01T21:02:54;4.10;;;1.55;;
76978;SDS011;65911;47.502;19.148;2023-04-01T21:09:40;2.97;;;1.40;;
76978;SDS011;65911;47.502;19.148;2023-04-01T21:12:53;3.58;;;1.10;;
76978;SDS011;65911;47.502;19.148;2023-04-01T21:39:39;3.05;;;1.52;;
76978;SDS011;65911;47.502;19.148;2023-04-01T22:03:36;3.70;;;2.03;;
76978;SDS011;65911;47.502;19.148;2023-04-01T22:09:52;2.17;;;1.60;;
76978;SDS011;65911;47.502;19.148;2023-04-01T22:29:52;1.73;;;1.20;;
76978;SDS011;65911;47.502;19.148;2023-04-01T22:32:55;2.03;;;1.00;;
76978;SDS011;65911;47.502;19.148;2023-04-01T22:36:04;1.40;;;1.17;;
76978;SDS011;65911;47.502;19.148;2023-04-01T22:39:20;2.60;;;1.00;;
76978;SDS011;65911;47.502;19.148;2023-04-01T22:42:38;1.60;;;0.98;;
76978;SDS011;65911;47.502;19.148;2023-04-01T22:49:38;2.03;;;0.87;;
76978;SDS011;65911;47.502;19.148;2023-04-01T22:52:47;2.47;;;1.02;;
76978;SDS011;65911;47.502;19.148;2023-04-01T22:55:53;1.92;;;1.10;;
76978;SDS011;65911;47.502;19.148;2023-04-01T22:59:16;1.25;;;1.10;;
76978;SDS011;65911;47.502;19.148;2023-04-01T23:02:22;2.17;;;0.90;;
76978;SDS011;65911;47.502;19.148;2023-04-01T23:05:27;1.95;;;0.90;;
76978;SDS011;65911;47.502;19.148;2023-04-01T23:08:36;2.13;;;1.00;;
76978;SDS011;65911;47.502;19.148;2023-04-01T23:11:45;1.70;;;0.60;;
76978;SDS011;65911;47.502;19.148;2023-04-01T23:14:51;1.67;;;1.00;;
76978;SDS011;65911;47.502;19.148;2023-04-01T23:24:48;1.48;;;0.90;;
76978;SDS011;65911;47.502;19.148;2023-04-01T23:31:26;1.90;;;1.05;;
76978;SDS011;65911;47.502;19.148;2023-04-01T23:34:34;1.88;;;1.00;;
76978;SDS011;65911;47.502;19.148;2023-04-01T23:37:36;2.55;;;1.10;;
76978;SDS011;65911;47.502;19.148;2023-04-01T23:40:39;1.13;;;1.02;;
76978;SDS011;65911;47.502;19.148;2023-04-01T23:43:42;1.67;;;1.10;;
76978;SDS011;65911;47.502;19.148;2023-04-01T23:46:45;0.95;;;0.70;;
76978;SDS011;65911;47.502;19.148;2023-04-01T23:49:50;1.73;;;0.90;;
76978;SDS011;65911;47.502;19.148;2023-04-01T23:53:00;1.10;;;0.80;;
76978;SDS011;65911;47.502;19.148;2023-04-01T23:56:05;1.17;;;0.88;;
76978;SDS011;65911;47.502;19.148;2023-04-01T23:59:14;1.40;;;1.10;;
